Time;durP1;ratioP1;P1;durP2;ratioP2;P2;SDS_P1;SDS_P2;PMS_P1;PMS_P2;Temp;Humidity;BMP_temperature;BMP_pressure;BME280_temperature;BME280_humidity;BME280_pressure;Samples;Min_cycle;Max_cycle;Signal;HPM_P1;HPM_P2
2021/07/03 00:00:02;;;;;;;16.47;14.73;;;17.20;99.90;;;;;;6291424;22;20388;-80
2021/07/03 00:02:28;;;;;;;16.87;13.50;;;17.20;99.90;;;;;;6291273;22;20439;-81
2021/07/03 00:04:55;;;;;;;15.50;13.30;;;17.10;99.90;;;;;;6291574;22;20441;-84
2021/07/03 00:07:22;;;;;;;15.60;13.83;;;17.10;99.90;;;;;;6283842;22;20420;-83
2021/07/03 00:09:50;;;;;;;16.13;14.37;;;17.00;99.90;;;;;;6287162;22;20453;-82
2021/07/03 00:12:17;;;;;;;21.67;14.27;;;17.00;99.90;;;;;;6283498;22;20415;-81
2021/07/03 00:14:43;;;;;;;15.90;14.27;;;17.00;99.90;;;;;;6282551;22;20415;-83
2021/07/03 00:17:10;;;;;;;15.47;13.80;;;16.90;99.90;;;;;;6292114;22;20393;-81
2021/07/03 00:19:37;;;;;;;17.70;14.87;;;17.00;99.90;;;;;;6298713;22;20398;-80
2021/07/03 00:22:04;;;;;;;15.47;13.87;;;16.90;99.90;;;;;;6295930;22;20426;-82
2021/07/03 00:24:31;;;;;;;16.77;15.03;;;16.90;99.90;;;;;;6285040;22;20403;-80
2021/07/03 00:26:59;;;;;;;15.80;14.30;;;17.00;99.90;;;;;;6284297;22;20731;-82
2021/07/03 00:29:26;;;;;;;18.60;14.57;;;17.00;99.90;;;;;;6283672;22;20431;-82
2021/07/03 00:31:52;;;;;;;16.43;14.73;;;16.90;99.90;;;;;;6283606;22;20751;-82
2021/07/03 00:34:19;;;;;;;15.77;14.20;;;16.90;99.90;;;;;;6282215;22;20471;-84
2021/07/03 00:36:46;;;;;;;15.97;14.40;;;16.90;99.90;;;;;;6282835;22;20410;-82
2021/07/03 00:39:12;;;;;;;15.70;14.10;;;16.90;99.90;;;;;;6283060;22;20410;-82
2021/07/03 00:41:39;;;;;;;17.17;15.47;;;16.80;99.90;;;;;;6288357;22;20418;-82
2021/07/03 00:44:07;;;;;;;17.87;16.17;;;16.80;99.90;;;;;;6300927;22;20410;-82
2021/07/03 00:46:34;;;;;;;16.40;14.80;;;16.70;99.90;;;;;;6284975;22;20878;-84
2021/07/03 00:49:00;;;;;;;18.83;14.90;;;16.70;99.90;;;;;;6282280;22;20423;-82
2021/07/03 00:51:28;;;;;;;22.23;15.80;;;16.60;99.90;;;;;;6279210;22;20419;-82
2021/07/03 00:53:55;;;;;;;19.23;17.23;;;16.60;99.90;;;;;;6277930;22;20408;-82
2021/07/03 00:56:22;;;;;;;18.53;16.10;;;16.60;99.90;;;;;;6294722;22;20486;-82
2021/07/03 00:58:48;;;;;;;16.40;14.73;;;16.60;99.90;;;;;;6282737;22;20407;-83
2021/07/03 01:01:16;;;;;;;18.30;16.40;;;16.60;99.90;;;;;;6287131;22;20431;-82
2021/07/03 01:03:43;;;;;;;17.70;15.90;;;16.60;99.90;;;;;;6280729;22;20402;-82
2021/07/03 01:06:10;;;;;;;17.60;15.23;;;16.50;99.90;;;;;;6281162;22;20882;-83
2021/07/03 01:08:37;;;;;;;19.97;16.43;;;16.50;99.90;;;;;;6289057;22;20959;-83
2021/07/03 01:11:03;;;;;;;18.63;16.80;;;16.50;99.90;;;;;;6290066;22;21088;-83
2021/07/03 01:13:31;;;;;;;17.53;15.60;;;16.50;99.90;;;;;;6283051;22;20398;-83
2021/07/03 01:15:58;;;;;;;17.40;15.43;;;16.40;99.90;;;;;;6282686;22;20433;-83
2021/07/03 01:18:26;;;;;;;16.87;15.20;;;16.30;99.90;;;;;;6283048;22;20402;-83
2021/07/03 01:20:54;;;;;;;16.60;14.90;;;16.30;99.90;;;;;;6283936;22;20411;-83
2021/07/03 01:23:23;;;;;;;22.30;16.07;;;16.30;99.90;;;;;;6282617;22;20410;-83
2021/07/03 01:25:55;;;;;;;18.13;16.23;;;16.20;99.90;;;;;;6284507;22;20438;-83
2021/07/03 01:28:24;;;;;;;18.87;16.93;;;16.20;99.90;;;;;;6286328;22;20424;-83
2021/07/03 01:30:52;;;;;;;19.50;15.43;;;16.10;99.90;;;;;;6284894;22;20433;-83
2021/07/03 01:33:19;;;;;;;18.03;16.13;;;16.20;99.90;;;;;;6289402;22;20475;-83
2021/07/03 01:35:46;;;;;;;18.60;16.40;;;16.10;99.90;;;;;;6281982;22;20394;-82
2021/07/03 01:38:17;;;;;;;21.60;17.87;;;16.10;99.90;;;;;;6283498;22;20871;-82
2021/07/03 01:40:46;;;;;;;18.13;16.00;;;16.00;99.90;;;;;;6283898;22;20397;-83
2021/07/03 01:43:12;;;;;;;19.43;17.30;;;16.00;99.90;;;;;;6294105;22;20771;-83
2021/07/03 01:45:39;;;;;;;18.87;16.83;;;16.00;99.90;;;;;;6287897;22;20528;-82
2021/07/03 01:48:07;;;;;;;17.70;15.90;;;16.00;99.90;;;;;;6259590;23;20442;-82
2021/07/03 01:50:34;;;;;;;17.20;15.10;;;15.90;99.90;;;;;;6250384;23;20902;-83
2021/07/03 01:53:01;;;;;;;18.40;15.57;;;15.90;99.90;;;;;;6251294;22;20974;-82
2021/07/03 01:55:27;;;;;;;19.50;16.10;;;15.90;99.90;;;;;;6250599;23;20399;-83
2021/07/03 01:57:55;;;;;;;18.47;15.93;;;15.80;99.90;;;;;;6251730;23;20739;-82
2021/07/03 02:00:23;;;;;;;22.03;18.10;;;15.90;99.90;;;;;;6250478;23;20419;-82
2021/07/03 02:02:52;;;;;;;18.63;15.83;;;15.90;99.90;;;;;;6250447;22;20424;-85
2021/07/03 02:05:19;;;;;;;17.87;15.97;;;15.80;99.90;;;;;;6250512;23;20410;-83
2021/07/03 02:07:46;;;;;;;17.27;15.47;;;15.80;99.90;;;;;;6251083;23;20435;-83
2021/07/03 02:10:12;;;;;;;21.70;17.80;;;15.80;99.90;;;;;;6246854;23;20444;-82
2021/07/03 02:12:41;;;;;;;19.27;17.17;;;15.70;99.90;;;;;;6246450;22;20424;-83
2021/07/03 02:15:10;;;;;;;21.03;17.70;;;15.70;99.90;;;;;;6246393;23;20404;-82
2021/07/03 02:17:36;;;;;;;18.37;16.10;;;15.60;99.90;;;;;;6250828;23;20411;-83
2021/07/03 02:20:04;;;;;;;20.83;16.80;;;15.60;99.90;;;;;;6255569;23;20415;-83
2021/07/03 02:22:31;;;;;;;18.53;15.10;;;15.60;99.90;;;;;;6266382;22;20491;-83
2021/07/03 02:24:58;;;;;;;19.30;17.27;;;15.50;99.90;;;;;;6264752;23;20428;-83
2021/07/03 02:27:25;;;;;;;18.73;16.30;;;15.60;99.90;;;;;;6256943;23;20407;-83
2021/07/03 02:29:51;;;;;;;18.17;15.87;;;15.60;99.90;;;;;;6261870;23;20445;-82
2021/07/03 02:32:19;;;;;;;18.90;15.37;;;15.60;99.90;;;;;;6265277;22;20428;-84
2021/07/03 02:34:46;;;;;;;18.40;15.33;;;15.70;99.90;;;;;;6260413;23;20483;-84
2021/07/03 02:37:14;;;;;;;19.57;15.20;;;15.60;99.90;;;;;;6262207;23;20415;-83
2021/07/03 02:39:41;;;;;;;16.33;14.40;;;15.60;99.90;;;;;;6258048;23;20396;-83
2021/07/03 02:42:08;;;;;;;17.80;15.70;;;15.60;99.90;;;;;;6256279;22;20421;-84
2021/07/03 02:44:35;;;;;;;16.70;15.00;;;15.50;99.90;;;;;;6257270;23;20419;-83
2021/07/03 02:47:02;;;;;;;16.13;14.50;;;15.50;99.90;;;;;;6273906;22;20401;-83
2021/07/03 02:49:52;;;;;;;16.10;14.40;;;15.50;99.90;;;;;;6286566;22;20447;-91
2021/07/03 02:52:47;;;;;;;16.93;13.77;;;15.50;99.90;;;;;;6298500;22;20406;-92
2021/07/03 02:55:16;;;;;;;17.10;13.90;;;15.40;99.90;;;;;;6285366;22;20407;-92
2021/07/03 02:58:11;;;;;;;13.97;12.60;;;15.40;99.90;;;;;;6283056;22;20431;-92
2021/07/03 03:00:54;;;;;;;17.13;15.33;;;15.40;99.90;;;;;;6251041;23;20894;-92
2021/07/03 03:03:24;;;;;;;18.63;14.20;;;15.40;99.90;;;;;;6249923;23;20408;-92
2021/07/03 03:05:57;;;;;;;20.50;14.57;;;15.40;99.90;;;;;;6267262;22;20398;-93
2021/07/03 03:08:44;;;;;;;17.87;14.23;;;15.40;99.90;;;;;;6270123;22;20428;-92
2021/07/03 03:11:15;;;;;;;19.63;16.43;;;15.30;99.90;;;;;;6255428;23;20414;-91
2021/07/03 03:14:04;;;;;;;17.30;13.83;;;15.30;99.90;;;;;;6266029;23;20391;-92
2021/07/03 03:16:38;;;;;;;17.13;15.33;;;15.30;99.90;;;;;;6257802;23;20409;-91
2021/07/03 03:22:05;;;;;;;16.30;13.77;;;15.30;99.90;;;;;;6249584;23;20758;-93
2021/07/03 03:24:46;;;;;;;16.50;13.97;;;15.20;99.90;;;;;;6248732;23;20388;-92
2021/07/03 03:27:14;;;;;;;17.07;15.33;;;15.30;99.90;;;;;;6248025;22;20473;-92
2021/07/03 03:29:49;;;;;;;17.40;14.30;;;15.20;99.90;;;;;;6248302;23;20436;-92
2021/07/03 03:32:33;;;;;;;17.90;14.90;;;15.20;99.90;;;;;;6248406;23;20469;-92
2021/07/03 03:35:07;;;;;;;17.07;14.37;;;15.10;99.90;;;;;;6248213;23;20923;-93
2021/07/03 03:37:40;;;;;;;19.70;14.43;;;15.10;99.90;;;;;;6249006;22;20482;-92
2021/07/03 03:40:18;;;;;;;17.30;15.50;;;15.20;99.90;;;;;;6248638;23;20379;-92
2021/07/03 03:43:26;;;;;;;15.60;13.93;;;15.10;99.90;;;;;;6248106;23;20470;-92
2021/07/03 03:49:31;;;;;;;18.17;15.30;;;15.10;99.90;;;;;;6228782;22;20448;-92
2021/07/03 03:52:50;;;;;;;16.50;14.90;;;15.00;99.90;;;;;;6260682;22;20409;-94
2021/07/03 03:55:37;;;;;;;;;;;;;;;;;;;;;
2021/07/03 03:58:23;;;;;;;19.20;14.30;;;15.00;99.90;;;;;;6250004;22;20898;-92
2021/07/03 04:00:59;;;;;;;18.67;15.20;;;15.00;99.90;;;;;;6248670;23;20412;-93
2021/07/03 04:03:34;;;;;;;16.00;14.40;;;15.00;99.90;;;;;;6248051;23;20371;-92
2021/07/03 04:06:36;;;;;;;16.30;14.73;;;15.00;99.90;;;;;;6254125;23;20410;-92
2021/07/03 04:09:03;;;;;;;18.77;15.37;;;15.00;99.90;;;;;;6154425;23;20442;-92
2021/07/03 04:11:52;;;;;;;16.23;14.67;;;15.00;99.90;;;;;;6166598;23;20805;-92
2021/07/03 04:14:24;;;;;;;19.20;15.93;;;15.00;99.90;;;;;;6247393;23;20473;-92
2021/07/03 04:17:02;;;;;;;15.03;13.53;;;15.00;99.90;;;;;;6247922;23;20431;-92
2021/07/03 04:19:29;;;;;;;18.77;15.50;;;15.10;99.90;;;;;;6253662;22;20437;-92
2021/07/03 04:21:56;;;;;;;17.47;14.67;;;15.00;99.90;;;;;;6247118;23;20468;-92
2021/07/03 04:24:23;;;;;;;17.70;14.50;;;15.00;99.90;;;;;;6246880;23;20742;-92
2021/07/03 04:26:51;;;;;;;16.00;14.50;;;15.10;99.90;;;;;;6247128;23;20419;-92
2021/07/03 04:29:19;;;;;;;14.97;13.37;;;15.10;99.90;;;;;;6247457;22;20467;-93
2021/07/03 04:31:46;;;;;;;16.07;14.37;;;15.10;99.90;;;;;;6252076;23;20439;-91
2021/07/03 04:34:14;;;;;;;15.93;14.33;;;15.20;99.90;;;;;;6254998;23;20491;-92
2021/07/03 04:37:00;;;;;;;15.13;13.63;;;15.20;99.90;;;;;;6273991;22;20392;-93
2021/07/03 04:39:28;;;;;;;17.90;14.30;;;15.30;99.90;;;;;;6271665;22;20470;-93
2021/07/03 04:41:56;;;;;;;15.23;13.70;;;15.40;99.90;;;;;;6274011;22;20410;-93
2021/07/03 04:44:23;;;;;;;14.47;12.93;;;15.40;99.90;;;;;;6269758;23;20399;-92
2021/07/03 04:47:01;;;;;;;14.70;13.10;;;15.50;99.90;;;;;;6259348;23;20480;-93
2021/07/03 04:49:57;;;;;;;13.60;12.20;;;15.50;99.90;;;;;;6265733;22;20457;-92
2021/07/03 04:52:39;;;;;;;13.63;12.33;;;15.60;99.90;;;;;;6267655;22;20491;-92
2021/07/03 04:55:43;;;;;;;16.27;13.50;;;15.60;99.90;;;;;;6271782;23;20391;-92
2021/07/03 05:01:52;;;;;;;16.73;13.20;;;15.70;99.90;;;;;;6266660;22;20435;-91
2021/07/03 05:07:34;;;;;;;15.70;13.40;;;15.80;99.90;;;;;;6268860;22;21057;-92
2021/07/03 05:10:20;;;;;;;14.90;11.60;;;15.80;99.90;;;;;;6265408;23;20438;-92
2021/07/03 05:19:28;;;;;;;12.90;10.90;;;16.00;99.90;;;;;;6257888;22;20412;-90
2021/07/03 05:25:17;;;;;;;;;;;;;;;;;;;;;
2021/07/03 05:28:02;;;;;;;12.83;11.60;;;16.90;99.90;;;;;;6258350;22;20474;-92
2021/07/03 05:30:45;;;;;;;16.00;12.17;;;17.70;99.90;;;;;;6254496;23;20435;-92
2021/07/03 05:36:49;;;;;;;11.60;10.60;;;18.80;99.90;;;;;;6272733;22;20373;-93
2021/07/03 05:49:22;;;;;;;13.57;12.13;;;21.30;99.90;;;;;;6044298;23;20446;-92
2021/07/03 05:55:16;;;;;;;11.10;10.13;;;22.10;97.50;;;;;;6219933;23;20457;-92
2021/07/03 05:57:48;;;;;;;12.00;10.80;;;22.20;96.90;;;;;;6224278;23;20430;-92
2021/07/03 06:00:29;;;;;;;11.10;10.10;;;22.30;96.50;;;;;;6230288;23;20437;-94
2021/07/03 06:03:22;;;;;;;11.03;9.93;;;22.60;96.10;;;;;;6239950;23;20404;-92
2021/07/03 06:09:09;;;;;;;13.90;10.70;;;23.60;94.00;;;;;;6221204;23;20520;-91
2021/07/03 06:11:48;;;;;;;11.63;10.63;;;24.10;92.40;;;;;;6229220;23;20405;-92
2021/07/03 06:17:30;;;;;;;11.17;10.23;;;24.50;90.90;;;;;;6221442;23;21101;-92
2021/07/03 06:20:08;;;;;;;11.10;10.20;;;25.10;90.00;;;;;;6222016;23;20492;-92
2021/07/03 06:23:00;;;;;;;10.00;9.20;;;25.40;86.30;;;;;;6227981;23;20398;-92
2021/07/03 06:25:36;;;;;;;9.90;9.10;;;25.20;87.10;;;;;;6221028;23;20428;-92
2021/07/03 06:28:04;;;;;;;11.17;10.17;;;25.30;85.50;;;;;;6226973;23;20503;-91
2021/07/03 06:30:35;;;;;;;10.40;9.50;;;25.40;84.60;;;;;;6227561;23;20441;-93
2021/07/03 06:33:20;;;;;;;10.97;10.07;;;25.50;84.70;;;;;;6229241;23;20435;-93
2021/07/03 06:36:01;;;;;;;11.10;10.20;;;25.50;84.00;;;;;;6223915;23;20984;-93
2021/07/03 06:41:39;;;;;;;9.00;8.30;;;26.10;82.60;;;;;;6210778;23;20408;-93
2021/07/03 06:44:21;;;;;;;10.77;9.87;;;26.50;81.20;;;;;;6232083;23;20492;-92
2021/07/03 06:47:17;;;;;;;11.40;10.40;;;26.60;81.20;;;;;;6236257;23;20408;-92
2021/07/03 06:50:01;;;;;;;10.23;9.40;;;26.90;77.30;;;;;;6256785;23;20446;-90
2021/07/03 06:52:42;;;;;;;10.20;9.20;;;27.40;76.20;;;;;;6266511;23;20372;-91
2021/07/03 06:55:25;;;;;;;10.20;9.40;;;27.70;76.30;;;;;;6265562;23;20400;-92
2021/07/03 06:57:52;;;;;;;9.13;8.33;;;27.60;75.20;;;;;;6254471;22;20518;-91
2021/07/03 07:00:23;;;;;;;9.90;8.70;;;27.90;72.20;;;;;;6258055;23;20407;-90
2021/07/03 07:03:07;;;;;;;9.47;8.50;;;27.90;73.50;;;;;;6262029;23;20427;-91
2021/07/03 07:05:45;;;;;;;9.90;9.03;;;27.80;72.20;;;;;;6261420;23;20379;-92
2021/07/03 07:08:18;;;;;;;10.10;9.10;;;28.00;72.50;;;;;;6273625;22;20461;-93
2021/07/03 07:10:54;;;;;;;9.60;8.80;;;28.60;70.00;;;;;;6269745;22;20440;-93
2021/07/03 07:13:42;;;;;;;8.90;8.20;;;29.10;68.20;;;;;;6261224;23;20494;-93
2021/07/03 07:16:12;;;;;;;9.80;9.00;;;29.20;66.90;;;;;;6261799;23;20412;-93
2021/07/03 07:18:57;;;;;;;9.43;8.63;;;28.90;65.50;;;;;;6259272;22;20432;-93
2021/07/03 07:21:29;;;;;;;11.30;8.63;;;29.50;65.00;;;;;;6258537;23;20489;-93
2021/07/03 07:24:02;;;;;;;10.27;9.30;;;30.00;63.90;;;;;;6258322;23;20412;-93
2021/07/03 07:26:58;;;;;;;10.50;9.50;;;29.50;63.50;;;;;;6258700;23;20408;-93
2021/07/03 07:29:35;;;;;;;9.40;8.63;;;29.10;63.80;;;;;;6263570;22;20447;-93
2021/07/03 07:32:08;;;;;;;8.67;7.87;;;29.10;64.30;;;;;;6259734;23;20407;-93
2021/07/03 07:34:35;;;;;;;9.00;8.30;;;29.00;62.00;;;;;;6259820;23;20418;-93
2021/07/03 07:37:04;;;;;;;9.30;8.67;;;29.30;62.90;;;;;;6260460;23;20435;-93
2021/07/03 07:39:48;;;;;;;11.67;8.80;;;29.70;61.20;;;;;;6259851;22;20470;-93
2021/07/03 07:42:22;;;;;;;9.03;8.23;;;30.60;59.70;;;;;;6257495;23;20411;-93
2021/07/03 07:45:35;;;;;;;;;;;;;;;;;;;;;
2021/07/03 07:48:19;;;;;;;9.03;8.13;;;30.30;59.60;;;;;;6257930;22;20452;-93
2021/07/03 07:51:18;;;;;;;8.03;7.43;;;30.10;59.80;;;;;;6255489;23;20440;-92
2021/07/03 07:54:07;;;;;;;8.77;8.07;;;30.10;60.00;;;;;;6253222;23;20507;-93
2021/07/03 07:59:34;;;;;;;10.23;8.17;;;31.10;58.40;;;;;;6256786;22;20504;-93
2021/07/03 08:02:14;;;;;;;9.17;8.43;;;30.80;58.50;;;;;;6267417;22;20408;-91
2021/07/03 08:04:56;;;;;;;9.60;8.87;;;30.70;57.50;;;;;;6263207;23;20427;-93
2021/07/03 08:10:46;;;;;;;8.93;8.13;;;31.70;56.10;;;;;;6258019;23;20443;-93
2021/07/03 08:13:34;;;;;;;9.90;9.10;;;31.80;56.30;;;;;;6257370;23;20405;-93
2021/07/03 08:16:49;;;;;;;8.90;8.10;;;32.40;54.70;;;;;;6253221;23;20416;-93
2021/07/03 08:20:25;;;;;;;8.23;7.63;;;32.70;54.50;;;;;;6254939;22;20432;-91
2021/07/03 08:30:12;;;;;;;9.33;8.50;;;32.20;54.00;;;;;;6144940;23;20435;-90
2021/07/03 08:33:21;;;;;;;9.00;7.77;;;32.40;52.50;;;;;;6055611;23;20425;-92
2021/07/03 08:39:40;;;;;;;8.70;7.80;;;34.30;49.30;;;;;;6244063;22;21017;-93
2021/07/03 08:52:07;;;;;;;6.57;6.07;;;35.20;41.80;;;;;;6249989;23;20472;-93
2021/07/03 09:19:09;;;;;;;7.30;6.57;;;37.00;38.00;;;;;;6250362;22;20436;-95
2021/07/03 09:28:39;;;;;;;6.77;6.27;;;37.00;38.20;;;;;;6207593;22;20424;-90
2021/07/03 09:34:27;;;;;;;6.77;6.37;;;34.50;40.60;;;;;;6227952;23;20419;-90
2021/07/03 09:40:24;;;;;;;6.23;5.83;;;35.70;38.70;;;;;;6250847;23;20416;-92
2021/07/03 09:43:54;;;;;;;6.83;6.27;;;35.60;38.00;;;;;;6255965;22;20431;-89
2021/07/03 10:11:15;;;;;;;6.13;5.63;;;37.40;35.60;;;;;;6185772;23;20489;-90
2021/07/03 10:23:49;;;;;;;6.50;6.00;;;38.70;32.90;;;;;;6138051;23;20429;-90
2021/07/03 10:27:11;;;;;;;5.77;5.20;;;37.50;33.40;;;;;;6136921;23;20957;-89
2021/07/03 11:05:47;;;;;;;5.40;5.03;;;40.30;28.80;;;;;;5946443;24;20414;-90
2021/07/03 11:36:06;;;;;;;4.90;4.60;;;42.80;27.10;;;;;;5983327;24;20465;-91
2021/07/03 11:42:38;;;;;;;5.97;5.57;;;43.40;27.00;;;;;;6084966;23;20536;-91
2021/07/03 11:48:33;;;;;;;5.67;5.27;;;40.40;29.60;;;;;;6115917;23;20430;-91
2021/07/03 11:54:47;;;;;;;6.00;5.60;;;41.60;27.90;;;;;;6250249;23;20431;-92
2021/07/03 12:04:27;;;;;;;5.47;5.07;;;42.00;27.90;;;;;;6252234;23;20404;-92
2021/07/03 12:11:17;;;;;;;5.53;5.07;;;41.60;27.30;;;;;;6224522;23;20399;-93
2021/07/03 12:17:58;;;;;;;6.37;5.87;;;41.50;27.70;;;;;;6227233;22;20470;-92
2021/07/03 12:20:59;;;;;;;5.67;5.23;;;41.90;27.50;;;;;;6253714;23;20418;-92
2021/07/03 12:26:51;;;;;;;5.20;4.87;;;41.00;27.50;;;;;;6196366;23;20400;-92
2021/07/03 12:35:58;;;;;;;5.23;4.73;;;40.40;27.50;;;;;;6247643;23;20387;-93
2021/07/03 12:54:52;;;;;;;4.90;4.50;;;37.90;30.00;;;;;;6198275;23;20424;-92
2021/07/03 12:58:21;;;;;;;5.97;5.57;;;38.30;29.30;;;;;;6252472;22;20411;-93
2021/07/03 13:01:14;;;;;;;5.70;5.30;;;39.60;28.60;;;;;;6143795;23;20403;-93
2021/07/03 13:11:20;;;;;;;5.30;4.90;;;39.90;28.10;;;;;;6206363;23;20439;-93
2021/07/03 13:14:20;;;;;;;5.40;5.00;;;39.60;28.10;;;;;;6223855;23;20424;-93
2021/07/03 13:42:16;;;;;;;5.30;4.90;;;40.10;28.60;;;;;;6044692;23;20485;-93
2021/07/03 14:36:52;;;;;;;5.47;5.07;;;31.60;38.90;;;;;;6263502;22;20420;-91
2021/07/03 14:53:45;;;;;;;6.23;5.47;;;30.10;42.50;;;;;;6137834;23;20483;-92
2021/07/03 15:03:12;;;;;;;;;;;;;;;;;;;;;
2021/07/03 18:32:53;;;;;;;7.50;6.90;;;26.00;55.90;;;;;;5874852;24;20456;-90
2021/07/03 18:36:11;;;;;;;;;;;;;;;;;;;;;
2021/07/03 18:42:31;;;;;;;7.60;6.90;;;23.60;74.10;;;;;;6153338;23;20425;-90
2021/07/03 18:53:02;;;;;;;9.20;8.40;;;22.50;89.90;;;;;;6153328;23;20419;-89
2021/07/03 20:33:37;;;;;;;9.20;8.30;;;20.60;99.90;;;;;;5898735;24;20467;-88
2021/07/03 20:43:22;;;;;;;;;;;;;;;;;;;;;
2021/07/03 20:52:34;;;;;;;8.10;7.40;;;20.50;99.90;;;;;;6199914;22;20446;-93
2021/07/03 20:55:38;;;;;;;8.70;7.90;;;20.50;99.90;;;;;;6284817;22;20751;-93
2021/07/03 20:58:31;;;;;;;8.40;7.70;;;20.60;99.90;;;;;;6245522;22;20948;-93
2021/07/03 21:05:02;;;;;;;9.23;8.53;;;20.60;99.90;;;;;;6300169;22;20425;-93
2021/07/03 21:08:22;;;;;;;;;;;;;;;;;;;;;
2021/07/03 21:11:21;;;;;;;9.20;8.40;;;20.60;99.90;;;;;;6226171;22;20405;-93
2021/07/03 21:14:32;;;;;;;11.80;7.30;;;20.70;99.90;;;;;;6238827;22;20900;-91
2021/07/03 21:21:05;;;;;;;8.50;7.80;;;20.70;99.90;;;;;;6285159;22;20431;-92
2021/07/03 21:24:22;;;;;;;7.97;7.37;;;20.70;99.90;;;;;;6291473;22;20418;-92
2021/07/03 21:50:24;;;;;;;;;;;;;;;;;;;;;
2021/07/03 22:03:47;;;;;;;7.67;6.50;;;20.40;99.90;;;;;;6208000;23;20397;-91
2021/07/03 22:20:41;;;;;;;7.33;6.63;;;20.40;99.90;;;;;;6099539;23;20400;-91
2021/07/03 22:44:35;;;;;;;8.07;6.60;;;20.40;99.90;;;;;;5970015;24;20429;-93
2021/07/03 23:05:39;;;;;;;6.80;6.20;;;20.10;99.90;;;;;;5863258;24;20486;-92
2021/07/03 23:28:36;;;;;;;5.50;5.10;;;19.90;99.90;;;;;;6204108;22;20404;-92
2021/07/03 23:42:35;;;;;;;6.07;5.50;;;19.80;99.90;;;;;;6087517;23;20418;-93
2021/07/03 23:45:41;;;;;;;6.07;5.57;;;19.80;99.90;;;;;;6079619;23;20417;-93
